sensor_id;sensor_type;location;lat;lon;timestamp;temperature;humidity
19888;DHT22;10106;51.332;12.336;2023-08-06T09:39:14;24.30;99.90
19888;DHT22;10106;51.332;12.336;2023-08-06T09:41:40;23.80;99.90
19888;DHT22;10106;51.332;12.336;2023-08-06T09:44:13;23.30;99.90
19888;DHT22;10106;51.332;12.336;2023-08-06T10:25:53;25.10;99.90
19888;DHT22;10106;51.332;12.336;2023-08-06T10:28:18;25.30;99.90
19888;DHT22;10106;51.332;12.336;2023-08-06T10:30:45;25.40;99.90
19888;DHT22;10106;51.332;12.336;2023-08-06T12:20:48;26.60;99.90
19888;DHT22;10106;51.332;12.336;2023-08-06T16:00:53;22.70;99.90
19888;DHT22;10106;51.332;12.336;2023-08-06T16:03:19;22.30;99.90
19888;DHT22;10106;51.332;12.336;2023-08-06T16:05:44;22.00;99.90
19888;DHT22;10106;51.332;12.336;2023-08-06T16:08:10;21.90;99.90
19888;DHT22;10106;51.332;12.336;2023-08-06T16:10:36;21.80;99.90
19888;DHT22;10106;51.332;12.336;2023-08-06T16:13:01;21.70;99.90
19888;DHT22;10106;51.332;12.336;2023-08-06T16:15:28;21.60;99.90
19888;DHT22;10106;51.332;12.336;2023-08-06T16:17:53;21.40;99.90
19888;DHT22;10106;51.332;12.336;2023-08-06T16:20:19;21.30;99.90
19888;DHT22;10106;51.332;12.336;2023-08-06T16:22:48;21.30;99.90
19888;DHT22;10106;51.332;12.336;2023-08-06T16:25:14;21.20;99.90
19888;DHT22;10106;51.332;12.336;2023-08-06T16:27:40;21.10;99.90
19888;DHT22;10106;51.332;12.336;2023-08-06T16:30:06;21.00;99.90
19888;DHT22;10106;51.332;12.336;2023-08-06T16:32:31;21.00;99.90
19888;DHT22;10106;51.332;12.336;2023-08-06T16:34:58;20.90;99.90
19888;DHT22;10106;51.332;12.336;2023-08-06T16:37:24;20.90;99.90
19888;DHT22;10106;51.332;12.336;2023-08-06T16:39:49;20.80;99.90
19888;DHT22;10106;51.332;12.336;2023-08-06T16:42:15;20.80;99.90
19888;DHT22;10106;51.332;12.336;2023-08-06T16:44:40;20.70;99.90
19888;DHT22;10106;51.332;12.336;2023-08-06T16:52:05;19.50;99.90
19888;DHT22;10106;51.332;12.336;2023-08-06T16:54:30;19.50;99.90
19888;DHT22;10106;51.332;12.336;2023-08-06T16:59:25;18.80;99.90
19888;DHT22;10106;51.332;12.336;2023-08-06T17:06:43;18.40;99.90
19888;DHT22;10106;51.332;12.336;2023-08-06T17:09:08;18.30;99.90
19888;DHT22;10106;51.332;12.336;2023-08-06T17:11:35;18.20;99.90
19888;DHT22;10106;51.332;12.336;2023-08-06T17:14:01;18.20;99.90
19888;DHT22;10106;51.332;12.336;2023-08-06T17:16:27;18.10;99.90
19888;DHT22;10106;51.332;12.336;2023-08-06T17:18:53;18.10;99.90
19888;DHT22;10106;51.332;12.336;2023-08-06T17:21:19;18.00;99.90
19888;DHT22;10106;51.332;12.336;2023-08-06T17:23:45;18.00;99.90
19888;DHT22;10106;51.332;12.336;2023-08-06T17:26:11;17.90;99.90
19888;DHT22;10106;51.332;12.336;2023-08-06T17:28:37;17.80;99.90
19888;DHT22;10106;51.332;12.336;2023-08-06T17:31:06;17.80;99.90
19888;DHT22;10106;51.332;12.336;2023-08-06T17:33:32;17.60;99.90
19888;DHT22;10106;51.332;12.336;2023-08-06T17:35:58;17.40;99.90
19888;DHT22;10106;51.332;12.336;2023-08-06T17:38:24;17.30;99.90
19888;DHT22;10106;51.332;12.336;2023-08-06T17:40:56;17.10;99.90
19888;DHT22;10106;51.332;12.336;2023-08-06T17:43:23;17.10;99.90
19888;DHT22;10106;51.332;12.336;2023-08-06T17:45:48;16.90;99.90
19888;DHT22;10106;51.332;12.336;2023-08-06T17:48:14;16.70;99.90
19888;DHT22;10106;51.332;12.336;2023-08-06T17:55:59;16.30;99.90
19888;DHT22;10106;51.332;12.336;2023-08-06T17:58:27;16.30;99.90
19888;DHT22;10106;51.332;12.336;2023-08-06T18:00:53;16.30;99.90
19888;DHT22;10106;51.332;12.336;2023-08-06T18:05:58;16.10;99.90
19888;DHT22;10106;51.332;12.336;2023-08-06T18:11:02;16.10;99.90
19888;DHT22;10106;51.332;12.336;2023-08-06T18:13:27;16.00;99.90
19888;DHT22;10106;51.332;12.336;2023-08-06T18:15:54;15.90;99.90
19888;DHT22;10106;51.332;12.336;2023-08-06T18:18:19;15.90;99.90
19888;DHT22;10106;51.332;12.336;2023-08-06T18:20:45;15.90;99.90
19888;DHT22;10106;51.332;12.336;2023-08-06T18:23:11;16.00;99.90
19888;DHT22;10106;51.332;12.336;2023-08-06T18:25:40;16.00;99.90
19888;DHT22;10106;51.332;12.336;2023-08-06T18:28:08;15.90;99.90
19888;DHT22;10106;51.332;12.336;2023-08-06T18:30:35;15.90;99.90
19888;DHT22;10106;51.332;12.336;2023-08-06T18:33:03;15.80;99.90
19888;DHT22;10106;51.332;12.336;2023-08-06T18:35:32;15.80;99.90
19888;DHT22;10106;51.332;12.336;2023-08-06T18:37:58;15.80;99.90
19888;DHT22;10106;51.332;12.336;2023-08-06T18:40:28;15.80;99.90
19888;DHT22;10106;51.332;12.336;2023-08-06T18:42:53;15.80;99.90
19888;DHT22;10106;51.332;12.336;2023-08-06T18:45:19;15.70;99.90
19888;DHT22;10106;51.332;12.336;2023-08-06T18:47:45;15.70;99.90
19888;DHT22;10106;51.332;12.336;2023-08-06T18:50:16;15.70;99.90
19888;DHT22;10106;51.332;12.336;2023-08-06T18:52:42;15.70;99.90
19888;DHT22;10106;51.332;12.336;2023-08-06T18:55:10;15.70;99.90
19888;DHT22;10106;51.332;12.336;2023-08-06T18:57:38;15.60;99.90
19888;DHT22;10106;51.332;12.336;2023-08-06T19:00:03;15.70;99.90
19888;DHT22;10106;51.332;12.336;2023-08-06T19:02:30;15.70;99.90
19888;DHT22;10106;51.332;12.336;2023-08-06T19:04:56;15.70;99.90
19888;DHT22;10106;51.332;12.336;2023-08-06T19:07:23;15.70;99.90
19888;DHT22;10106;51.332;12.336;2023-08-06T19:09:49;15.60;99.90
19888;DHT22;10106;51.332;12.336;2023-08-06T19:12:15;15.60;99.90
19888;DHT22;10106;51.332;12.336;2023-08-06T19:14:41;15.60;99.90
19888;DHT22;10106;51.332;12.336;2023-08-06T19:17:06;15.60;99.90
19888;DHT22;10106;51.332;12.336;2023-08-06T19:19:34;15.50;99.90
19888;DHT22;10106;51.332;12.336;2023-08-06T19:22:02;15.50;99.90
19888;DHT22;10106;51.332;12.336;2023-08-06T19:24:28;15.50;99.90
19888;DHT22;10106;51.332;12.336;2023-08-06T19:26:57;15.40;99.90
19888;DHT22;10106;51.332;12.336;2023-08-06T19:29:24;15.40;99.90
19888;DHT22;10106;51.332;12.336;2023-08-06T19:31:53;15.40;99.90
19888;DHT22;10106;51.332;12.336;2023-08-06T19:34:19;15.40;99.90
19888;DHT22;10106;51.332;12.336;2023-08-06T19:36:45;15.40;99.90
19888;DHT22;10106;51.332;12.336;2023-08-06T19:39:15;15.40;99.90
19888;DHT22;10106;51.332;12.336;2023-08-06T19:41:41;15.40;99.90
19888;DHT22;10106;51.332;12.336;2023-08-06T19:44:10;15.40;99.90
19888;DHT22;10106;51.332;12.336;2023-08-06T19:46:39;15.40;99.90
19888;DHT22;10106;51.332;12.336;2023-08-06T19:49:15;15.50;99.90
19888;DHT22;10106;51.332;12.336;2023-08-06T19:51:40;15.50;99.90
19888;DHT22;10106;51.332;12.336;2023-08-06T19:54:06;15.50;99.90
19888;DHT22;10106;51.332;12.336;2023-08-06T19:56:32;15.50;99.90
19888;DHT22;10106;51.332;12.336;2023-08-06T19:58:58;15.50;99.90
19888;DHT22;10106;51.332;12.336;2023-08-06T20:01:23;15.50;99.90
19888;DHT22;10106;51.332;12.336;2023-08-06T20:03:51;15.50;99.90
19888;DHT22;10106;51.332;12.336;2023-08-06T20:06:17;15.50;99.90
19888;DHT22;10106;51.332;12.336;2023-08-06T20:08:46;15.50;99.90
19888;DHT22;10106;51.332;12.336;2023-08-06T20:11:12;15.50;99.90
19888;DHT22;10106;51.332;12.336;2023-08-06T20:13:37;15.50;99.90
19888;DHT22;10106;51.332;12.336;2023-08-06T20:16:03;15.50;99.90
19888;DHT22;10106;51.332;12.336;2023-08-06T20:18:29;15.50;99.90
19888;DHT22;10106;51.332;12.336;2023-08-06T20:20:55;15.40;99.90
19888;DHT22;10106;51.332;12.336;2023-08-06T20:23:27;15.40;99.90
19888;DHT22;10106;51.332;12.336;2023-08-06T20:25:55;15.40;99.90
19888;DHT22;10106;51.332;12.336;2023-08-06T20:28:21;15.40;99.90
19888;DHT22;10106;51.332;12.336;2023-08-06T20:30:53;15.30;99.90
19888;DHT22;10106;51.332;12.336;2023-08-06T20:33:19;15.40;99.90
19888;DHT22;10106;51.332;12.336;2023-08-06T20:35:44;15.40;99.90
19888;DHT22;10106;51.332;12.336;2023-08-06T20:38:13;15.40;99.90
19888;DHT22;10106;51.332;12.336;2023-08-06T20:40:39;15.40;99.90
19888;DHT22;10106;51.332;12.336;2023-08-06T20:43:10;15.30;99.90
19888;DHT22;10106;51.332;12.336;2023-08-06T20:45:39;15.30;99.90
19888;DHT22;10106;51.332;12.336;2023-08-06T20:48:05;15.30;99.90
19888;DHT22;10106;51.332;12.336;2023-08-06T20:50:41;15.30;99.90
19888;DHT22;10106;51.332;12.336;2023-08-06T20:53:06;15.20;99.90
19888;DHT22;10106;51.332;12.336;2023-08-06T20:55:35;15.20;99.90
19888;DHT22;10106;51.332;12.336;2023-08-06T20:58:01;15.20;99.90
19888;DHT22;10106;51.332;12.336;2023-08-06T21:00:29;15.20;99.90
19888;DHT22;10106;51.332;12.336;2023-08-06T21:02:55;15.10;99.90
19888;DHT22;10106;51.332;12.336;2023-08-06T21:05:20;15.10;99.90
19888;DHT22;10106;51.332;12.336;2023-08-06T21:07:46;15.10;99.90
19888;DHT22;10106;51.332;12.336;2023-08-06T21:10:12;15.10;99.90
19888;DHT22;10106;51.332;12.336;2023-08-06T21:12:38;15.10;99.90
19888;DHT22;10106;51.332;12.336;2023-08-06T21:15:04;15.10;99.90
19888;DHT22;10106;51.332;12.336;2023-08-06T21:17:30;15.10;99.90
19888;DHT22;10106;51.332;12.336;2023-08-06T21:19:58;15.10;99.90
19888;DHT22;10106;51.332;12.336;2023-08-06T21:22:24;15.10;99.90
19888;DHT22;10106;51.332;12.336;2023-08-06T21:24:50;15.10;99.90
19888;DHT22;10106;51.332;12.336;2023-08-06T21:27:15;15.10;99.90
19888;DHT22;10106;51.332;12.336;2023-08-06T21:29:41;15.00;99.90
19888;DHT22;10106;51.332;12.336;2023-08-06T21:32:09;15.10;99.90
19888;DHT22;10106;51.332;12.336;2023-08-06T21:34:34;15.00;99.90
19888;DHT22;10106;51.332;12.336;2023-08-06T21:37:00;15.10;99.90
19888;DHT22;10106;51.332;12.336;2023-08-06T21:39:26;15.00;99.90
19888;DHT22;10106;51.332;12.336;2023-08-06T21:41:52;15.10;99.90
19888;DHT22;10106;51.332;12.336;2023-08-06T21:44:17;15.10;99.90
19888;DHT22;10106;51.332;12.336;2023-08-06T21:46:43;15.00;99.90
19888;DHT22;10106;51.332;12.336;2023-08-06T21:49:09;15.10;99.90
19888;DHT22;10106;51.332;12.336;2023-08-06T21:51:36;15.10;99.90
19888;DHT22;10106;51.332;12.336;2023-08-06T21:54:02;15.10;99.90
19888;DHT22;10106;51.332;12.336;2023-08-06T21:56:28;15.10;99.90
19888;DHT22;10106;51.332;12.336;2023-08-06T21:58:53;15.20;99.90
19888;DHT22;10106;51.332;12.336;2023-08-06T22:01:23;15.20;99.90
19888;DHT22;10106;51.332;12.336;2023-08-06T22:03:49;15.20;99.90
19888;DHT22;10106;51.332;12.336;2023-08-06T22:06:15;15.20;99.90
19888;DHT22;10106;51.332;12.336;2023-08-06T22:08:41;15.20;99.90
19888;DHT22;10106;51.332;12.336;2023-08-06T22:11:07;15.20;99.90
19888;DHT22;10106;51.332;12.336;2023-08-06T22:13:33;15.10;99.90
19888;DHT22;10106;51.332;12.336;2023-08-06T22:15:59;15.10;99.90
19888;DHT22;10106;51.332;12.336;2023-08-06T22:18:25;15.10;99.90
19888;DHT22;10106;51.332;12.336;2023-08-06T22:20:54;15.10;99.90
19888;DHT22;10106;51.332;12.336;2023-08-06T22:23:19;15.00;99.90
19888;DHT22;10106;51.332;12.336;2023-08-06T22:25:48;15.00;99.90
19888;DHT22;10106;51.332;12.336;2023-08-06T22:28:14;15.00;99.90
19888;DHT22;10106;51.332;12.336;2023-08-06T22:30:39;15.00;99.90
19888;DHT22;10106;51.332;12.336;2023-08-06T22:33:05;15.00;99.90
19888;DHT22;10106;51.332;12.336;2023-08-06T22:35:31;15.00;99.90
19888;DHT22;10106;51.332;12.336;2023-08-06T22:37:57;15.10;99.90
19888;DHT22;10106;51.332;12.336;2023-08-06T22:40:22;15.10;99.90
19888;DHT22;10106;51.332;12.336;2023-08-06T22:42:48;15.10;99.90
19888;DHT22;10106;51.332;12.336;2023-08-06T22:45:14;15.10;99.90
19888;DHT22;10106;51.332;12.336;2023-08-06T22:47:42;15.10;99.90
19888;DHT22;10106;51.332;12.336;2023-08-06T22:50:08;15.10;99.90
19888;DHT22;10106;51.332;12.336;2023-08-06T22:52:34;15.10;99.90
19888;DHT22;10106;51.332;12.336;2023-08-06T22:55:00;15.10;99.90
19888;DHT22;10106;51.332;12.336;2023-08-06T22:57:26;15.10;99.90
19888;DHT22;10106;51.332;12.336;2023-08-06T22:59:52;15.10;99.90
19888;DHT22;10106;51.332;12.336;2023-08-06T23:02:17;15.10;99.90
19888;DHT22;10106;51.332;12.336;2023-08-06T23:04:43;15.00;99.90
19888;DHT22;10106;51.332;12.336;2023-08-06T23:07:08;15.00;99.90
19888;DHT22;10106;51.332;12.336;2023-08-06T23:09:34;14.90;99.90
19888;DHT22;10106;51.332;12.336;2023-08-06T23:12:00;14.90;99.90
19888;DHT22;10106;51.332;12.336;2023-08-06T23:14:25;14.90;99.90
19888;DHT22;10106;51.332;12.336;2023-08-06T23:16:51;14.90;99.90
19888;DHT22;10106;51.332;12.336;2023-08-06T23:19:17;14.90;99.90
19888;DHT22;10106;51.332;12.336;2023-08-06T23:21:43;14.90;99.90
19888;DHT22;10106;51.332;12.336;2023-08-06T23:24:08;14.90;99.90
19888;DHT22;10106;51.332;12.336;2023-08-06T23:26:34;14.90;99.90
19888;DHT22;10106;51.332;12.336;2023-08-06T23:28:59;14.90;99.90
19888;DHT22;10106;51.332;12.336;2023-08-06T23:31:25;14.90;99.90
19888;DHT22;10106;51.332;12.336;2023-08-06T23:33:50;14.90;99.90
19888;DHT22;10106;51.332;12.336;2023-08-06T23:36:16;14.90;99.90
19888;DHT22;10106;51.332;12.336;2023-08-06T23:38:42;14.90;99.90
19888;DHT22;10106;51.332;12.336;2023-08-06T23:41:07;14.90;99.90
19888;DHT22;10106;51.332;12.336;2023-08-06T23:43:33;14.90;99.90
19888;DHT22;10106;51.332;12.336;2023-08-06T23:45:58;14.80;99.90
19888;DHT22;10106;51.332;12.336;2023-08-06T23:48:25;14.80;99.90
19888;DHT22;10106;51.332;12.336;2023-08-06T23:50:50;14.80;99.90
19888;DHT22;10106;51.332;12.336;2023-08-06T23:53:16;14.80;99.90
19888;DHT22;10106;51.332;12.336;2023-08-06T23:55:42;14.80;99.90
19888;DHT22;10106;51.332;12.336;2023-08-06T23:58:07;14.80;99.90
